createdAt,value
2023-02-21T00:02:02.706Z,61.63
2023-02-21T00:04:48.474Z,61.63
2023-02-21T00:07:33.993Z,61.77
2023-02-21T00:10:19.488Z,61.30
2023-02-21T00:13:05.987Z,61.60
2023-02-21T00:15:52.559Z,61.46
2023-02-21T00:18:38.148Z,61.26
2023-02-21T00:21:24.302Z,61.34
2023-02-21T00:24:09.756Z,61.12
2023-02-21T00:26:55.337Z,61.12
2023-02-21T00:29:40.768Z,61.04
2023-02-21T00:32:27.415Z,60.99
2023-02-21T00:35:12.716Z,60.96
2023-02-21T00:37:58.322Z,60.77
2023-02-21T00:40:43.855Z,60.57
2023-02-21T00:43:29.362Z,60.71
2023-02-21T00:46:14.793Z,60.74
2023-02-21T00:49:01.563Z,60.05
2023-02-21T00:51:46.815Z,60.48
2023-02-21T00:54:32.306Z,60.33
2023-02-21T00:57:17.664Z,60.14
2023-02-21T01:00:03.079Z,60.38
2023-02-21T01:02:49.061Z,60.44
2023-02-21T01:05:35.979Z,60.38
2023-02-21T01:08:21.512Z,60.25
2023-02-21T01:11:06.919Z,60.42
2023-02-21T01:13:52.377Z,60.32
2023-02-21T01:16:37.798Z,60.14
2023-02-21T01:19:22.954Z,60.29
2023-02-21T01:22:09.744Z,60.65
2023-02-21T01:24:55.268Z,60.48
2023-02-21T01:27:40.692Z,60.40
2023-02-21T01:30:27.831Z,60.46
2023-02-21T01:33:12.914Z,60.55
2023-02-21T01:35:58.397Z,60.59
2023-02-21T01:38:45.120Z,60.54
2023-02-21T01:41:30.445Z,60.86
2023-02-21T01:44:19.114Z,60.78
2023-02-21T01:47:04.957Z,60.89
2023-02-21T01:49:53.575Z,60.36
2023-02-21T01:52:39.586Z,60.52
2023-02-21T01:55:28.682Z,60.56
2023-02-21T01:58:15.645Z,60.98
2023-02-21T02:01:01.813Z,61.02
2023-02-21T02:03:49.516Z,61.13
2023-02-21T02:06:36.198Z,61.09
2023-02-21T02:09:35.007Z,60.95
2023-02-21T02:12:35.470Z,60.94
2023-02-21T02:15:43.269Z,61.40
2023-02-21T02:18:50.835Z,61.35
2023-02-21T02:21:59.228Z,60.85
2023-02-21T02:25:07.640Z,60.93
2023-02-21T02:28:17.612Z,61.13
2023-02-21T02:31:28.053Z,61.18
2023-02-21T02:34:36.694Z,61.05
2023-02-21T02:37:15.917Z,60.92
2023-02-21T02:39:51.770Z,61.16
2023-02-21T02:42:33.464Z,61.16
2023-02-21T02:45:10.006Z,60.79
2023-02-21T02:47:40.501Z,61.42
2023-02-21T02:50:12.396Z,61.00
2023-02-21T02:52:51.281Z,61.19
2023-02-21T02:55:33.826Z,60.91
2023-02-21T02:58:02.608Z,60.74
2023-02-21T03:00:33.174Z,60.94
2023-02-21T03:03:43.041Z,60.96
2023-02-21T03:06:28.397Z,61.43
2023-02-21T03:09:12.715Z,61.17
2023-02-21T03:11:52.134Z,60.91
2023-02-21T03:14:27.547Z,60.91
2023-02-21T03:17:02.894Z,61.04
2023-02-21T03:19:35.471Z,61.04
2023-02-21T03:22:08.773Z,60.90
2023-02-21T03:24:38.435Z,60.88
2023-02-21T03:27:08.265Z,60.65
2023-02-21T03:29:38.826Z,60.77
2023-02-21T03:32:11.336Z,60.72
2023-02-21T03:34:39.190Z,60.96
2023-02-21T03:37:10.850Z,60.81
2023-02-21T03:39:37.792Z,60.85
2023-02-21T03:42:04.947Z,60.93
2023-02-21T03:44:31.825Z,60.81
2023-02-21T03:46:58.794Z,61.16
2023-02-21T03:49:25.677Z,60.72
2023-02-21T03:51:52.542Z,60.83
2023-02-21T03:54:20.786Z,60.94
2023-02-21T03:56:47.744Z,60.90
2023-02-21T03:59:14.655Z,61.04
2023-02-21T04:01:41.541Z,61.08
2023-02-21T04:04:09.607Z,61.31
2023-02-21T04:06:36.486Z,61.23
2023-02-21T04:09:03.951Z,61.17
2023-02-21T04:11:32.597Z,61.48
2023-02-21T04:13:59.554Z,61.54
2023-02-21T04:16:26.519Z,61.73
2023-02-21T04:18:53.443Z,61.78
2023-02-21T04:21:20.564Z,61.81
2023-02-21T04:23:47.427Z,62.13
2023-02-21T04:26:14.448Z,62.06
2023-02-21T04:28:42.703Z,62.02
2023-02-21T04:31:09.622Z,62.13
2023-02-21T04:33:36.514Z,62.29
2023-02-21T04:36:03.837Z,62.23
2023-02-21T04:38:30.745Z,62.48
2023-02-21T04:40:57.587Z,62.39
2023-02-21T04:43:24.562Z,62.64
2023-02-21T04:45:52.867Z,62.43
2023-02-21T04:48:20.538Z,62.56
2023-02-21T04:50:47.625Z,62.39
2023-02-21T04:53:14.961Z,62.18
2023-02-21T04:55:41.958Z,62.18
2023-02-21T04:58:08.894Z,62.56
2023-02-21T05:00:35.772Z,62.43
2023-02-21T05:03:03.986Z,62.51
2023-02-21T05:05:30.903Z,62.28
2023-02-21T05:07:57.795Z,62.43
2023-02-21T05:10:31.012Z,62.15
2023-02-21T05:13:03.652Z,62.36
2023-02-21T05:15:30.537Z,62.40
2023-02-21T05:17:57.436Z,62.37
2023-02-21T05:20:25.822Z,62.27
2023-02-21T05:22:54.524Z,62.38
2023-02-21T05:25:24.767Z,62.09
2023-02-21T05:27:53.286Z,62.28
2023-02-21T05:30:22.347Z,62.43
2023-02-21T05:32:49.797Z,62.17
2023-02-21T05:35:17.217Z,62.13
2023-02-21T05:37:45.474Z,62.23
2023-02-21T05:40:13.257Z,62.35
2023-02-21T05:42:40.170Z,62.10
2023-02-21T05:45:09.468Z,62.20
2023-02-21T05:47:36.899Z,62.03
2023-02-21T05:50:05.623Z,62.27
2023-02-21T05:52:32.801Z,62.34
2023-02-21T05:55:00.994Z,62.09
2023-02-21T05:57:29.145Z,62.57
2023-02-21T05:59:56.085Z,62.29
2023-02-21T06:02:23.070Z,62.41
2023-02-21T06:04:49.999Z,62.26
2023-02-21T06:07:18.634Z,62.32
2023-02-21T06:09:45.565Z,62.31
2023-02-21T06:12:13.870Z,62.38
2023-02-21T06:14:40.743Z,62.62
2023-02-21T06:17:07.643Z,62.69
2023-02-21T06:19:34.513Z,62.75
2023-02-21T06:22:01.584Z,62.71
2023-02-21T06:24:28.430Z,62.80
2023-02-21T06:26:56.180Z,62.49
2023-02-21T06:29:24.399Z,63.05
2023-02-21T06:31:57.585Z,62.63
2023-02-21T06:34:24.749Z,62.88
2023-02-21T06:36:52.963Z,62.55
2023-02-21T06:39:19.942Z,62.49
2023-02-21T06:41:46.890Z,62.75
2023-02-21T06:44:13.833Z,62.91
2023-02-21T06:46:43.279Z,62.64
2023-02-21T06:49:10.686Z,62.89
2023-02-21T06:51:40.972Z,62.74
2023-02-21T06:54:09.288Z,62.58
2023-02-21T06:56:36.858Z,62.61
2023-02-21T06:59:03.995Z,63.00
2023-02-21T07:01:31.407Z,62.32
2023-02-21T07:04:00.083Z,62.49
2023-02-21T07:06:29.614Z,62.29
2023-02-21T07:08:57.256Z,62.48
2023-02-21T07:11:24.309Z,62.48
2023-02-21T07:13:52.045Z,62.21
2023-02-21T07:16:20.120Z,62.54
2023-02-21T07:18:47.399Z,62.65
2023-02-21T07:21:17.359Z,62.04
2023-02-21T07:23:45.435Z,62.03
2023-02-21T07:26:13.611Z,62.03
2023-02-21T07:28:41.015Z,62.30
2023-02-21T07:31:08.110Z,62.10
2023-02-21T07:33:35.103Z,62.22
2023-02-21T07:36:02.603Z,62.19
2023-02-21T07:38:36.192Z,62.26
2023-02-21T07:41:04.481Z,62.05
2023-02-21T07:43:33.220Z,62.05
2023-02-21T07:46:01.026Z,62.08
2023-02-21T07:48:28.060Z,62.04
2023-02-21T07:50:55.009Z,62.30
2023-02-21T07:53:22.029Z,61.75
2023-02-21T07:55:50.373Z,61.99
2023-02-21T07:58:19.131Z,61.96
2023-02-21T08:00:47.414Z,61.93
2023-02-21T08:03:14.966Z,61.99
2023-02-21T08:05:42.059Z,61.94
2023-02-21T08:08:09.619Z,61.98
2023-02-21T08:10:36.721Z,61.81
2023-02-21T08:13:05.666Z,61.71
2023-02-21T08:15:32.540Z,62.02
2023-02-21T08:17:59.533Z,61.90
2023-02-21T08:20:26.410Z,61.86
2023-02-21T08:22:53.655Z,61.97
2023-02-21T08:25:20.575Z,61.97
2023-02-21T08:27:55.271Z,61.83
2023-02-21T08:30:27.555Z,61.95
2023-02-21T08:32:54.689Z,61.38
2023-02-21T08:35:21.985Z,61.72
2023-02-21T08:37:51.832Z,61.44
2023-02-21T08:40:19.906Z,61.57
2023-02-21T08:42:50.323Z,61.58
2023-02-21T08:45:20.958Z,61.37
2023-02-21T08:47:50.362Z,61.21
2023-02-21T08:50:18.834Z,61.17
2023-02-21T08:52:46.346Z,61.35
2023-02-21T08:55:13.968Z,61.37
2023-02-21T08:58:41.926Z,60.90
2023-02-21T09:53:03.789Z,60.86
2023-02-21T09:55:36.074Z,60.67
2023-02-21T09:58:03.226Z,60.61
2023-02-21T10:00:36.692Z,60.24
2023-02-21T10:03:28.504Z,60.47
2023-02-21T10:06:05.659Z,60.44
2023-02-21T10:08:47.514Z,60.24
2023-02-21T10:11:31.195Z,60.02
2023-02-21T10:14:13.108Z,59.96
2023-02-21T10:16:51.745Z,59.76
2023-02-21T10:19:26.341Z,59.65
2023-02-21T10:21:58.674Z,59.49
2023-02-21T10:24:28.996Z,59.52
2023-02-21T10:27:04.440Z,59.17
2023-02-21T10:29:44.040Z,59.10
2023-02-21T10:32:11.415Z,58.89
2023-02-21T10:34:38.514Z,58.81
2023-02-21T10:37:26.204Z,58.88
2023-02-21T10:40:02.444Z,58.67
2023-02-21T10:42:39.884Z,58.50
2023-02-21T10:45:09.285Z,58.74
2023-02-21T10:47:53.521Z,58.20
2023-02-21T10:50:50.729Z,57.67
2023-02-21T10:53:29.583Z,57.75
2023-02-21T10:56:21.045Z,57.75
2023-02-21T10:58:51.688Z,57.98
2023-02-21T11:01:22.499Z,57.91
2023-02-21T11:03:52.110Z,57.68
2023-02-21T11:06:31.617Z,57.94
2023-02-21T11:09:00.333Z,57.32
2023-02-21T11:11:40.743Z,57.03
2023-02-21T11:14:22.964Z,57.35
2023-02-21T11:17:15.572Z,57.05
2023-02-21T11:19:52.883Z,56.64
2023-02-21T11:22:25.005Z,56.73
2023-02-21T11:25:01.186Z,56.36
2023-02-21T11:27:34.219Z,56.18
2023-02-21T11:30:12.644Z,56.13
2023-02-21T11:32:43.205Z,55.94
2023-02-21T11:35:25.714Z,55.81
2023-02-21T11:37:57.495Z,55.52
2023-02-21T11:40:32.909Z,55.29
2023-02-21T11:43:23.891Z,55.00
2023-02-21T11:46:05.223Z,54.98
2023-02-21T11:48:39.147Z,54.63
2023-02-21T11:51:33.533Z,54.49
2023-02-21T11:54:00.687Z,54.48
2023-02-21T11:56:42.660Z,54.53
2023-02-21T11:59:32.765Z,54.47
2023-02-21T12:02:52.177Z,54.60
2023-02-21T12:05:34.947Z,54.24
2023-02-21T12:08:27.204Z,53.51
2023-02-21T12:11:11.847Z,53.64
2023-02-21T12:13:56.594Z,53.63
2023-02-21T12:16:43.074Z,53.84
2023-02-21T12:19:44.885Z,53.74
2023-02-21T12:22:30.876Z,53.67
2023-02-21T12:25:15.357Z,53.69
2023-02-21T12:27:55.910Z,53.57
2023-02-21T12:30:40.435Z,53.51
2023-02-21T12:33:27.518Z,53.28
2023-02-21T12:36:28.562Z,53.27
2023-02-21T12:39:16.150Z,53.35
2023-02-21T12:42:06.082Z,53.30
2023-02-21T12:44:49.263Z,53.51
2023-02-21T12:47:23.261Z,53.39
2023-02-21T12:50:00.266Z,53.31
2023-02-21T12:52:36.346Z,53.34
2023-02-21T12:55:12.459Z,53.33
2023-02-21T12:57:51.598Z,53.03
2023-02-21T13:00:22.880Z,53.09
2023-02-21T13:03:01.629Z,52.94
2023-02-21T13:05:39.821Z,52.79
2023-02-21T13:08:20.946Z,52.25
2023-02-21T13:11:00.820Z,52.17
2023-02-21T13:13:34.944Z,51.88
2023-02-21T13:16:05.838Z,51.98
2023-02-21T13:18:39.315Z,51.71
2023-02-21T13:21:30.804Z,51.74
2023-02-21T13:24:29.901Z,51.17
2023-02-21T13:27:48.607Z,51.13
2023-02-21T13:30:23.550Z,51.26
2023-02-21T13:32:55.203Z,50.43
2023-02-21T13:35:32.350Z,50.74
2023-02-21T13:38:06.700Z,50.61
2023-02-21T13:40:38.326Z,50.60
2023-02-21T13:43:13.964Z,50.75
2023-02-21T13:45:41.416Z,50.95
2023-02-21T13:48:29.553Z,51.04
2023-02-21T13:50:59.315Z,51.29
2023-02-21T13:53:33.928Z,51.06
2023-02-21T13:56:18.458Z,51.14
2023-02-21T13:58:48.403Z,51.28
2023-02-21T14:01:42.417Z,51.16
2023-02-21T14:05:01.301Z,51.27
2023-02-21T14:07:56.775Z,51.36
2023-02-21T14:10:38.629Z,51.47
2023-02-21T14:13:18.587Z,51.49
2023-02-21T14:15:50.398Z,51.42
2023-02-21T14:18:25.437Z,51.50
2023-02-21T14:20:56.114Z,51.52
2023-02-21T14:23:31.675Z,51.43
2023-02-21T14:26:04.061Z,51.46
2023-02-21T14:29:11.456Z,51.37
2023-02-21T14:31:56.067Z,51.40
2023-02-21T14:34:35.941Z,51.66
2023-02-21T14:37:13.349Z,51.50
2023-02-21T14:39:45.230Z,51.76
2023-02-21T14:42:36.137Z,51.46
2023-02-21T14:45:34.134Z,51.71
2023-02-21T14:48:41.565Z,51.78
2023-02-21T14:51:57.892Z,52.04
2023-02-21T14:54:56.241Z,51.95
2023-02-21T14:58:04.012Z,52.12
2023-02-21T15:00:42.423Z,52.22
2023-02-21T15:03:19.059Z,52.20
2023-02-21T15:06:03.117Z,52.11
2023-02-21T15:08:42.685Z,52.65
2023-02-21T15:11:26.081Z,52.79
2023-02-21T15:14:22.823Z,52.59
2023-02-21T15:16:54.127Z,52.76
2023-02-21T15:19:29.392Z,52.83
2023-02-21T15:22:18.094Z,53.06
2023-02-21T15:25:14.774Z,52.87
2023-02-21T15:28:01.790Z,53.33
2023-02-21T15:30:39.006Z,53.47
2023-02-21T15:33:15.172Z,53.40
2023-02-21T15:35:49.926Z,53.78
2023-02-21T15:38:27.959Z,53.64
2023-02-21T15:41:02.484Z,53.82
2023-02-21T15:43:39.057Z,53.63
2023-02-21T15:46:15.125Z,53.61
2023-02-21T15:48:42.299Z,53.81
2023-02-21T15:51:11.462Z,53.78
2023-02-21T15:53:38.636Z,53.75
2023-02-21T15:56:28.434Z,53.73
2023-02-21T15:59:18.808Z,53.80
2023-02-21T16:02:15.444Z,53.90
2023-02-21T16:04:45.285Z,53.91
2023-02-21T16:07:23.502Z,54.00
2023-02-21T16:09:59.891Z,54.03
2023-02-21T16:12:33.160Z,54.44
2023-02-21T16:15:05.790Z,54.15
2023-02-21T16:17:37.487Z,54.06
2023-02-21T16:20:16.750Z,54.52
2023-02-21T16:23:06.671Z,54.42
2023-02-21T16:25:34.703Z,54.22
2023-02-21T16:28:10.591Z,54.52
2023-02-21T16:30:39.191Z,54.49
2023-02-21T16:33:13.839Z,54.67
2023-02-21T16:35:42.347Z,54.56
2023-02-21T16:38:18.260Z,54.76
2023-02-21T16:40:45.562Z,54.69
2023-02-21T16:43:19.636Z,54.77
2023-02-21T16:45:51.549Z,54.70
2023-02-21T16:48:26.495Z,54.74
2023-02-21T16:50:54.085Z,54.78
2023-02-21T16:53:22.558Z,54.69
2023-02-21T16:55:51.556Z,55.03
2023-02-21T16:58:25.991Z,54.88
2023-02-21T17:00:57.368Z,55.03
2023-02-21T17:03:26.024Z,54.99
2023-02-21T17:05:55.111Z,54.90
2023-02-21T17:08:22.072Z,55.25
2023-02-21T17:10:48.926Z,55.13
2023-02-21T17:13:15.872Z,55.04
2023-02-21T17:15:42.942Z,55.33
2023-02-21T17:18:10.013Z,55.30
2023-02-21T17:20:38.193Z,55.68
2023-02-21T17:23:05.534Z,55.50
2023-02-21T17:25:34.898Z,55.53
2023-02-21T17:28:02.096Z,55.49
2023-02-21T17:30:29.201Z,55.78
2023-02-21T17:32:56.182Z,55.83
2023-02-21T17:35:24.487Z,55.61
2023-02-21T17:37:52.914Z,55.78
2023-02-21T17:40:22.000Z,55.87
2023-02-21T17:42:49.468Z,55.95
2023-02-21T17:45:19.777Z,55.62
2023-02-21T17:47:47.421Z,55.76
2023-02-21T17:50:15.196Z,56.15
2023-02-21T17:52:43.242Z,55.99
2023-02-21T17:55:19.492Z,56.01
2023-02-21T17:57:46.605Z,55.86
2023-02-21T18:00:21.279Z,55.91
2023-02-21T18:02:48.828Z,56.31
2023-02-21T18:05:15.921Z,56.33
2023-02-21T18:07:47.833Z,56.12
2023-02-21T18:10:17.975Z,56.55
2023-02-21T18:12:45.477Z,56.51
2023-02-21T18:15:13.857Z,56.69
2023-02-21T18:17:40.972Z,56.72
2023-02-21T18:20:12.049Z,56.64
2023-02-21T18:22:38.987Z,56.71
2023-02-21T18:25:08.495Z,56.70
2023-02-21T18:27:37.454Z,56.68
2023-02-21T18:30:06.263Z,56.82
2023-02-21T18:32:33.452Z,56.88
2023-02-21T18:35:00.794Z,56.98
2023-02-21T18:37:27.817Z,57.02
2023-02-21T18:39:56.172Z,56.88
2023-02-21T18:42:23.904Z,57.15
2023-02-21T18:44:52.534Z,56.89
2023-02-21T18:47:19.873Z,56.98
2023-02-21T18:49:47.804Z,56.86
2023-02-21T18:52:16.105Z,57.04
2023-02-21T18:54:44.456Z,57.12
2023-02-21T18:57:11.969Z,57.21
2023-02-21T18:59:39.041Z,57.08
2023-02-21T19:02:12.278Z,57.11
2023-02-21T19:04:39.470Z,57.12
2023-02-21T19:07:07.958Z,57.25
2023-02-21T19:09:37.833Z,57.45
2023-02-21T19:12:07.885Z,57.47
2023-02-21T19:14:35.209Z,57.49
2023-02-21T19:17:02.573Z,57.60
2023-02-21T19:19:31.980Z,57.58
2023-02-21T19:21:59.748Z,57.67
2023-02-21T19:24:27.478Z,57.89
2023-02-21T19:26:54.713Z,57.73
2023-02-21T19:29:21.900Z,57.90
2023-02-21T19:31:49.304Z,57.72
2023-02-21T19:34:16.670Z,57.54
2023-02-21T19:36:44.852Z,57.90
2023-02-21T19:39:12.021Z,57.86
2023-02-21T19:41:40.276Z,58.22
2023-02-21T19:44:08.641Z,57.93
2023-02-21T19:46:35.830Z,58.01
2023-02-21T19:49:03.601Z,57.81
2023-02-21T19:51:32.827Z,58.00
2023-02-21T19:54:01.856Z,58.11
2023-02-21T19:56:29.060Z,58.21
2023-02-21T19:58:57.968Z,57.95
2023-02-21T20:01:26.451Z,58.09
2023-02-21T20:03:53.477Z,57.72
2023-02-21T20:06:24.591Z,57.80
2023-02-21T20:08:51.724Z,57.80
2023-02-21T20:11:22.950Z,57.55
2023-02-21T20:13:50.596Z,57.97
2023-02-21T20:16:20.216Z,57.83
2023-02-21T20:18:49.898Z,57.84
2023-02-21T20:21:19.359Z,57.92
2023-02-21T20:23:46.637Z,58.02
2023-02-21T20:26:16.221Z,57.94
2023-02-21T20:28:47.177Z,58.23
2023-02-21T20:31:15.107Z,58.18
2023-02-21T20:33:43.038Z,58.06
2023-02-21T20:36:10.343Z,57.90
2023-02-21T20:38:38.487Z,57.88
2023-02-21T20:41:08.680Z,57.91
2023-02-21T20:43:36.316Z,58.24
2023-02-21T20:46:05.311Z,57.79
2023-02-21T20:48:32.665Z,57.98
2023-02-21T20:51:00.467Z,57.96
2023-02-21T20:53:28.408Z,57.75
2023-02-21T20:55:55.897Z,57.93
2023-02-21T20:58:24.295Z,57.89
2023-02-21T21:00:53.193Z,58.03
2023-02-21T21:03:21.436Z,57.88
2023-02-21T21:05:48.340Z,57.85
2023-02-21T21:08:16.003Z,57.93
2023-02-21T21:10:48.366Z,57.99
2023-02-21T21:13:15.728Z,57.72
2023-02-21T21:15:43.502Z,57.79
2023-02-21T21:18:10.682Z,58.07
2023-02-21T21:20:39.038Z,58.04
2023-02-21T21:23:06.997Z,58.02
2023-02-21T21:25:34.536Z,57.90
2023-02-21T21:28:02.307Z,58.01
2023-02-21T21:30:30.442Z,57.72
2023-02-21T21:32:57.506Z,57.88
2023-02-21T21:35:29.883Z,57.64
2023-02-21T21:37:58.292Z,57.82
2023-02-21T21:40:26.943Z,58.11
2023-02-21T21:42:54.166Z,57.89
2023-02-21T21:45:25.382Z,57.84
2023-02-21T21:47:55.309Z,58.04
2023-02-21T21:50:23.115Z,58.02
2023-02-21T21:52:53.876Z,57.94
2023-02-21T21:55:25.448Z,57.79
2023-02-21T21:57:53.463Z,57.96
2023-02-21T22:00:24.860Z,57.88
2023-02-21T22:02:57.400Z,57.86
2023-02-21T22:05:25.932Z,57.91
2023-02-21T22:07:53.485Z,57.87
2023-02-21T22:10:24.108Z,57.71
2023-02-21T22:12:53.916Z,57.48
2023-02-21T22:15:24.653Z,57.72
2023-02-21T22:17:52.109Z,57.85
2023-02-21T22:20:28.140Z,57.32
2023-02-21T22:22:59.626Z,57.71
2023-02-21T22:25:30.466Z,57.87
2023-02-21T22:28:03.036Z,57.67
2023-02-21T22:30:29.944Z,57.87
2023-02-21T22:32:56.973Z,57.88
2023-02-21T22:35:25.087Z,57.74
2023-02-21T22:37:56.229Z,57.75
2023-02-21T22:40:27.020Z,57.88
2023-02-21T22:42:56.605Z,58.04
2023-02-21T22:45:24.363Z,57.96
2023-02-21T22:47:55.617Z,58.13
2023-02-21T22:50:25.861Z,57.90
2023-02-21T22:52:55.485Z,57.67
2023-02-21T22:55:24.969Z,57.89
2023-02-21T22:57:56.230Z,57.95
2023-02-21T23:00:27.055Z,57.87
2023-02-21T23:02:53.968Z,58.00
2023-02-21T23:05:22.072Z,58.10
2023-02-21T23:07:51.846Z,57.93
2023-02-21T23:10:25.589Z,57.80
2023-02-21T23:12:58.057Z,57.90
2023-02-21T23:15:27.094Z,58.15
2023-02-21T23:17:54.479Z,57.98
2023-02-21T23:20:26.497Z,57.89
2023-02-21T23:22:57.410Z,58.08
2023-02-21T23:25:26.679Z,58.00
2023-02-21T23:27:57.570Z,58.22
2023-02-21T23:30:27.279Z,58.04
2023-02-21T23:32:55.549Z,58.27
2023-02-21T23:35:22.844Z,57.97
2023-02-21T23:37:53.121Z,58.33
2023-02-21T23:40:22.766Z,58.25
2023-02-21T23:42:54.426Z,58.23
2023-02-21T23:45:26.242Z,58.12
2023-02-21T23:47:55.662Z,58.19
2023-02-21T23:50:30.255Z,58.48
2023-02-21T23:53:02.283Z,58.73
2023-02-21T23:55:30.892Z,58.88
2023-02-21T23:58:03.530Z,58.97
